createdAt,value
2022-10-05T00:00:36.253Z,6.55
2022-10-05T00:03:27.264Z,6.37
2022-10-05T00:06:11.967Z,6.27
2022-10-05T00:08:55.451Z,6.29
2022-10-05T00:11:42.131Z,6.56
2022-10-05T00:17:50.365Z,7.27
2022-10-05T00:23:24.144Z,7.17
2022-10-05T00:26:13.215Z,6.74
2022-10-05T00:28:56.569Z,6.54
2022-10-05T00:31:52.682Z,6.46
2022-10-05T00:34:32.287Z,6.48
2022-10-05T00:37:35.880Z,6.65
2022-10-05T00:40:38.920Z,6.70
2022-10-05T00:43:39.580Z,6.84
2022-10-05T00:46:27.350Z,6.79
2022-10-05T00:49:23.627Z,6.83
2022-10-05T00:52:11.293Z,6.71
2022-10-05T00:55:06.256Z,6.94
2022-10-05T00:58:12.991Z,6.89
2022-10-05T01:01:20.456Z,7.57
2022-10-05T01:04:01.878Z,8.03
2022-10-05T01:06:49.045Z,8.19
2022-10-05T01:09:45.338Z,7.90
2022-10-05T01:12:48.667Z,7.71
2022-10-05T01:15:46.992Z,7.41
2022-10-05T01:18:35.488Z,7.39
2022-10-05T01:21:29.300Z,7.46
2022-10-05T01:24:49.961Z,7.57
2022-10-05T01:28:07.579Z,7.91
2022-10-05T01:30:50.451Z,8.08
2022-10-05T01:33:38.233Z,8.17
2022-10-05T01:36:40.260Z,8.13
2022-10-05T01:39:23.330Z,8.11
2022-10-05T01:42:11.004Z,7.82
2022-10-05T01:45:06.187Z,7.77
2022-10-05T01:51:12.513Z,8.05
2022-10-05T01:54:09.954Z,8.12
2022-10-05T02:00:23.267Z,8.12
2022-10-05T02:03:34.318Z,7.65
2022-10-05T02:06:17.620Z,8.00
2022-10-05T02:09:01.419Z,7.88
2022-10-05T02:11:43.123Z,7.29
2022-10-05T02:14:32.363Z,7.91
2022-10-05T02:20:24.273Z,7.94
2022-10-05T02:23:07.344Z,7.88
2022-10-05T02:29:13.033Z,7.81
2022-10-05T02:34:51.226Z,7.94
2022-10-05T02:38:17.655Z,7.70
2022-10-05T02:41:11.166Z,7.52
2022-10-05T02:44:12.365Z,7.37
2022-10-05T02:47:11.113Z,7.14
2022-10-05T02:50:00.810Z,7.12
2022-10-05T02:53:00.764Z,7.19
2022-10-05T02:55:56.751Z,7.32
2022-10-05T02:59:22.581Z,7.42
2022-10-05T03:02:21.865Z,7.47
2022-10-05T03:05:05.006Z,7.51
2022-10-05T03:08:00.920Z,7.55
2022-10-05T03:16:58.609Z,7.37
2022-10-05T03:20:04.718Z,7.64
2022-10-05T03:22:57.263Z,7.41
2022-10-05T03:25:57.007Z,7.60
2022-10-05T03:28:41.082Z,7.53
2022-10-05T03:31:37.432Z,7.31
2022-10-05T03:34:27.440Z,7.50
2022-10-05T03:37:15.614Z,7.71
2022-10-05T03:40:28.011Z,7.53
2022-10-05T03:43:41.894Z,7.41
2022-10-05T03:46:39.038Z,7.52
2022-10-05T03:49:39.019Z,7.45
2022-10-05T03:52:19.902Z,7.33
2022-10-05T03:55:03.791Z,7.28
2022-10-05T03:57:48.406Z,7.31
2022-10-05T04:00:32.826Z,7.65
2022-10-05T04:03:37.030Z,7.86
2022-10-05T04:06:20.277Z,7.67
2022-10-05T04:09:27.474Z,7.31
2022-10-05T04:12:23.037Z,6.96
2022-10-05T04:15:07.085Z,6.84
2022-10-05T04:18:10.377Z,6.99
2022-10-05T04:21:03.202Z,7.07
2022-10-05T04:24:09.722Z,6.91
2022-10-05T04:27:00.498Z,6.99
2022-10-05T04:29:44.603Z,7.04
2022-10-05T04:32:45.226Z,7.46
2022-10-05T04:36:13.302Z,7.78
2022-10-05T04:39:14.496Z,7.95
2022-10-05T04:42:08.852Z,8.27
2022-10-05T04:45:26.835Z,8.39
2022-10-05T04:48:43.870Z,8.59
2022-10-05T04:51:41.247Z,8.79
2022-10-05T04:54:53.435Z,8.97
2022-10-05T04:57:42.335Z,9.23
2022-10-05T05:01:08.048Z,9.45
2022-10-05T05:04:42.452Z,9.81
2022-10-05T05:11:20.089Z,10.13
2022-10-05T05:15:06.469Z,10.59
2022-10-05T05:21:48.960Z,10.30
2022-10-05T05:27:54.822Z,10.52
2022-10-05T05:30:52.939Z,10.33
2022-10-05T05:33:56.952Z,10.18
2022-10-05T05:37:04.166Z,9.90
2022-10-05T05:39:43.851Z,9.59
2022-10-05T05:42:28.339Z,9.52
2022-10-05T05:45:27.820Z,9.46
2022-10-05T05:51:45.966Z,9.31
2022-10-05T05:54:41.747Z,9.25
2022-10-05T05:57:28.349Z,8.94
2022-10-05T06:00:13.732Z,8.66
2022-10-05T06:03:18.631Z,8.50
2022-10-05T06:06:02.360Z,8.79
2022-10-05T06:08:49.756Z,8.78
2022-10-05T06:11:35.975Z,8.76
2022-10-05T06:14:21.898Z,8.39
2022-10-05T06:17:07.228Z,8.75
2022-10-05T06:19:59.925Z,8.83
2022-10-05T06:22:57.350Z,8.45
2022-10-05T06:25:57.050Z,8.24
2022-10-05T06:28:42.546Z,8.14
2022-10-05T06:31:45.238Z,8.06
2022-10-05T06:34:49.788Z,7.48
2022-10-05T06:37:56.401Z,8.02
2022-10-05T06:41:15.569Z,7.90
2022-10-05T06:44:18.344Z,7.86
2022-10-05T06:47:24.333Z,7.90
2022-10-05T06:50:08.537Z,7.56
2022-10-05T06:53:05.496Z,7.60
2022-10-05T06:56:09.316Z,7.65
2022-10-05T06:58:58.097Z,7.71
2022-10-05T07:01:47.832Z,7.74
2022-10-05T07:04:51.390Z,7.76
2022-10-05T07:07:38.565Z,7.68
2022-10-05T07:10:44.754Z,7.62
2022-10-05T07:17:56.663Z,7.57
2022-10-05T07:20:45.635Z,7.52
2022-10-05T07:23:55.684Z,7.57
2022-10-05T07:26:55.562Z,7.59
2022-10-05T07:29:55.909Z,7.61
2022-10-05T07:32:39.819Z,7.59
2022-10-05T07:38:59.465Z,7.55
2022-10-05T07:42:22.280Z,6.99
2022-10-05T07:45:05.459Z,7.44
2022-10-05T07:47:58.912Z,7.04
2022-10-05T07:51:13.552Z,7.32
2022-10-05T07:54:08.401Z,7.26
2022-10-05T07:57:01.901Z,7.25
2022-10-05T08:02:47.552Z,7.12
2022-10-05T08:05:44.127Z,7.05
2022-10-05T08:08:46.043Z,6.86
2022-10-05T08:11:31.763Z,6.98
2022-10-05T08:14:16.668Z,6.89
2022-10-05T08:16:57.327Z,6.84
2022-10-05T08:19:46.568Z,6.82
2022-10-05T08:22:32.945Z,6.58
2022-10-05T08:29:25.859Z,6.28
2022-10-05T08:32:11.849Z,6.07
2022-10-05T08:34:57.769Z,6.04
2022-10-05T08:37:44.530Z,5.80
2022-10-05T08:40:57.753Z,5.89
2022-10-05T08:44:01.495Z,5.49
2022-10-05T08:47:19.390Z,5.72
2022-10-05T08:50:41.348Z,5.55
2022-10-05T08:53:50.072Z,5.00
2022-10-05T08:56:53.549Z,5.17
2022-10-05T08:59:57.831Z,5.00
2022-10-05T09:02:51.824Z,4.61
2022-10-05T09:06:14.309Z,4.66
2022-10-05T09:09:41.590Z,4.60
2022-10-05T09:13:00.389Z,4.47
2022-10-05T09:16:21.333Z,4.34
2022-10-05T09:19:30.915Z,4.18
2022-10-05T09:22:22.914Z,4.12
2022-10-05T09:25:18.903Z,3.76
2022-10-05T09:28:14.438Z,3.96
2022-10-05T09:31:09.645Z,3.85
2022-10-05T09:34:27.547Z,3.93
2022-10-05T09:37:46.837Z,3.92
2022-10-05T09:40:59.288Z,4.04
2022-10-05T09:44:28.549Z,4.20
2022-10-05T09:47:41.225Z,4.32
2022-10-05T09:55:19.575Z,4.32
2022-10-05T09:58:35.933Z,4.07
2022-10-05T10:01:39.074Z,4.11
2022-10-05T10:04:49.727Z,4.31
2022-10-05T10:08:02.190Z,4.29
2022-10-05T10:11:05.800Z,4.28
2022-10-05T10:14:19.526Z,4.33
2022-10-05T10:17:19.877Z,4.20
2022-10-05T10:20:38.597Z,4.30
2022-10-05T10:27:29.578Z,4.35
2022-10-05T10:31:11.171Z,4.27
2022-10-05T10:34:54.499Z,4.21
2022-10-05T10:38:06.784Z,4.03
2022-10-05T10:41:15.430Z,3.98
2022-10-05T10:44:29.672Z,4.05
2022-10-05T10:50:28.311Z,4.04
2022-10-05T10:53:21.439Z,3.96
2022-10-05T10:56:30.600Z,3.61
2022-10-05T10:59:52.063Z,3.70
2022-10-05T11:03:11.142Z,3.67
2022-10-05T11:06:17.183Z,3.60
2022-10-05T11:09:19.480Z,3.57
2022-10-05T11:15:56.308Z,3.72
2022-10-05T11:19:01.786Z,3.73
2022-10-05T11:22:02.525Z,3.82
2022-10-05T11:25:25.571Z,3.86
2022-10-05T11:28:45.003Z,3.92
2022-10-05T11:31:57.012Z,3.99
2022-10-05T11:35:18.969Z,4.09
2022-10-05T11:38:21.265Z,4.13
2022-10-05T11:41:43.246Z,4.23
2022-10-05T11:44:55.952Z,4.27
2022-10-05T11:48:14.053Z,4.13
2022-10-05T11:51:13.653Z,4.33
2022-10-05T11:54:05.144Z,4.26
2022-10-05T11:56:44.665Z,4.36
2022-10-05T11:59:53.431Z,4.35
2022-10-05T12:03:17.858Z,4.49
2022-10-05T12:06:11.505Z,4.50
2022-10-05T12:09:04.805Z,4.65
2022-10-05T12:12:23.089Z,4.33
2022-10-05T12:15:14.569Z,4.75
2022-10-05T12:18:06.186Z,4.86
2022-10-05T12:20:55.957Z,4.85
2022-10-05T12:24:00.294Z,4.92
2022-10-05T12:27:06.731Z,4.97
2022-10-05T12:30:09.959Z,4.95
2022-10-05T12:33:11.526Z,4.90
2022-10-05T12:36:07.177Z,4.65
2022-10-05T12:39:04.032Z,4.48
2022-10-05T12:41:57.809Z,4.47
2022-10-05T12:44:56.952Z,4.39
2022-10-05T12:47:54.422Z,4.33
2022-10-05T12:51:21.835Z,4.18
2022-10-05T12:54:17.006Z,4.02
2022-10-05T12:57:12.730Z,4.01
2022-10-05T13:00:00.197Z,4.04
2022-10-05T13:09:25.129Z,4.16
2022-10-05T13:12:16.010Z,4.29
2022-10-05T13:15:16.501Z,4.36
2022-10-05T13:18:10.352Z,4.35
2022-10-05T13:21:01.921Z,4.41
2022-10-05T13:24:10.225Z,4.52
2022-10-05T13:26:55.849Z,4.53
2022-10-05T13:29:51.057Z,4.47
2022-10-05T13:32:43.467Z,4.41
2022-10-05T13:35:49.081Z,4.51
2022-10-05T13:38:37.072Z,4.42
2022-10-05T13:41:28.204Z,4.11
2022-10-05T13:44:46.762Z,4.42
2022-10-05T13:48:57.820Z,4.35
2022-10-05T13:51:10.328Z,4.44
2022-10-05T13:54:03.477Z,4.36
2022-10-05T13:56:59.239Z,4.03
2022-10-05T14:00:15.136Z,4.39
2022-10-05T14:03:18.322Z,4.09
2022-10-05T14:06:10.166Z,4.46
2022-10-05T14:11:55.296Z,4.21
2022-10-05T14:14:47.432Z,4.35
2022-10-05T14:17:46.686Z,4.42
2022-10-05T14:20:37.556Z,4.44
2022-10-05T14:23:32.832Z,4.28
2022-10-05T14:26:27.957Z,4.56
2022-10-05T14:29:24.236Z,4.60
2022-10-05T14:32:31.775Z,4.54
2022-10-05T14:35:37.858Z,4.63
2022-10-05T14:38:28.725Z,4.58
2022-10-05T14:41:22.409Z,4.52
2022-10-05T14:44:10.846Z,4.54
2022-10-05T14:47:00.292Z,4.43
2022-10-05T14:49:48.101Z,4.53
2022-10-05T14:53:03.371Z,4.53
2022-10-05T14:56:13.618Z,4.45
2022-10-05T15:02:50.023Z,4.47
2022-10-05T15:05:31.409Z,4.45
2022-10-05T15:08:21.498Z,4.43
2022-10-05T15:11:12.800Z,4.41
2022-10-05T15:14:00.229Z,4.33
2022-10-05T15:16:45.972Z,4.13
2022-10-05T15:19:36.921Z,4.02
2022-10-05T15:22:33.990Z,3.99
2022-10-05T15:25:36.561Z,3.87
2022-10-05T15:28:39.048Z,4.07
2022-10-05T15:31:40.405Z,4.05
2022-10-05T15:34:36.872Z,4.04
2022-10-05T15:37:21.711Z,4.05
2022-10-05T15:40:07.493Z,4.03
2022-10-05T15:42:54.109Z,4.02
2022-10-05T15:45:53.061Z,4.04
2022-10-05T15:48:36.578Z,4.03
2022-10-05T15:51:37.409Z,4.01
2022-10-05T15:54:34.646Z,4.06
2022-10-05T16:00:24.852Z,3.95
2022-10-05T16:03:28.165Z,4.02
2022-10-05T16:06:29.951Z,4.04
2022-10-05T16:09:18.383Z,3.58
2022-10-05T16:12:04.500Z,4.01
2022-10-05T16:15:07.586Z,3.87
2022-10-05T16:18:12.959Z,3.72
2022-10-05T16:21:09.663Z,3.82
2022-10-05T16:24:32.038Z,3.93
2022-10-05T16:27:18.913Z,4.00
2022-10-05T16:30:19.557Z,3.96
2022-10-05T16:33:16.440Z,3.97
2022-10-05T16:36:05.440Z,4.01
2022-10-05T16:38:50.876Z,4.00
2022-10-05T16:41:41.959Z,3.97
2022-10-05T16:44:32.795Z,4.01
2022-10-05T16:47:37.599Z,4.01
2022-10-05T16:50:48.201Z,4.02
2022-10-05T16:53:31.824Z,3.88
2022-10-05T16:56:16.079Z,3.94
2022-10-05T16:59:05.812Z,3.86
2022-10-05T17:01:59.086Z,3.97
2022-10-05T17:04:51.957Z,3.94
2022-10-05T17:07:59.161Z,3.97
2022-10-05T17:11:01.966Z,3.91
2022-10-05T17:14:10.931Z,3.94
2022-10-05T17:17:03.332Z,3.94
2022-10-05T17:19:58.798Z,3.91
2022-10-05T17:22:53.643Z,3.43
2022-10-05T17:25:47.165Z,3.86
2022-10-05T17:28:51.782Z,3.73
2022-10-05T17:31:29.594Z,3.67
2022-10-05T17:34:36.025Z,3.83
2022-10-05T17:37:45.558Z,3.84
2022-10-05T17:40:54.244Z,3.71
2022-10-05T17:43:40.032Z,3.77
2022-10-05T17:46:31.168Z,3.87
2022-10-05T17:49:25.405Z,3.87
2022-10-05T17:52:28.313Z,3.88
2022-10-05T17:55:44.938Z,3.89
2022-10-05T18:02:36.590Z,3.87
2022-10-05T18:05:31.422Z,3.85
2022-10-05T18:08:38.696Z,3.85
2022-10-05T18:11:49.775Z,3.80
2022-10-05T18:14:34.560Z,3.26
2022-10-05T18:17:42.031Z,3.71
2022-10-05T18:20:55.213Z,3.77
2022-10-05T18:23:47.379Z,3.64
2022-10-05T18:26:53.573Z,3.66
2022-10-05T18:30:04.601Z,3.32
2022-10-05T18:33:29.186Z,3.17
2022-10-05T18:36:26.807Z,3.25
2022-10-05T18:39:21.334Z,3.42
2022-10-05T18:42:20.175Z,3.52
2022-10-05T18:45:02.884Z,3.59
2022-10-05T18:48:05.447Z,3.69
2022-10-05T18:51:10.530Z,3.38
2022-10-05T18:54:13.610Z,3.40
2022-10-05T18:57:11.201Z,3.65
2022-10-05T19:00:01.288Z,3.69
2022-10-05T19:02:43.909Z,3.64
2022-10-05T19:05:47.541Z,3.60
2022-10-05T19:08:42.322Z,3.54
2022-10-05T19:11:29.216Z,3.48
2022-10-05T19:14:31.222Z,3.48
2022-10-05T19:17:34.292Z,3.45
2022-10-05T19:20:44.879Z,3.45
2022-10-05T19:24:07.055Z,3.51
2022-10-05T19:27:00.009Z,3.56
2022-10-05T19:30:07.438Z,3.56
2022-10-05T19:33:10.550Z,3.50
2022-10-05T19:36:12.401Z,3.41
2022-10-05T19:39:17.415Z,2.88
2022-10-05T19:45:19.801Z,2.81
2022-10-05T19:48:07.764Z,3.14
2022-10-05T19:51:00.656Z,3.27
2022-10-05T19:53:47.126Z,3.32
2022-10-05T19:56:48.806Z,2.77
2022-10-05T19:59:26.937Z,3.39
2022-10-05T20:02:07.394Z,3.49
2022-10-05T20:04:49.696Z,3.49
2022-10-05T20:10:34.336Z,3.56
2022-10-05T20:13:36.846Z,2.98
2022-10-05T20:16:52.373Z,3.44
2022-10-05T20:19:58.323Z,3.01
2022-10-05T20:22:54.378Z,2.83
2022-10-05T20:25:51.873Z,3.29
2022-10-05T20:28:52.302Z,2.88
2022-10-05T20:31:28.904Z,3.21
2022-10-05T20:34:19.946Z,3.12
2022-10-05T20:37:02.940Z,3.01
2022-10-05T20:39:47.780Z,3.26
2022-10-05T20:42:24.649Z,3.26
2022-10-05T20:45:28.357Z,3.32
2022-10-05T20:48:05.874Z,3.37
2022-10-05T20:50:52.223Z,3.39
2022-10-05T20:53:35.375Z,3.36
2022-10-05T20:56:26.550Z,3.28
2022-10-05T20:59:07.802Z,3.38
2022-10-05T21:01:51.655Z,3.33
2022-10-05T21:04:41.294Z,3.17
2022-10-05T21:07:31.343Z,3.08
2022-10-05T21:10:13.754Z,3.40
2022-10-05T21:12:56.316Z,3.09
2022-10-05T21:15:35.699Z,3.58
2022-10-05T21:18:23.530Z,3.55
2022-10-05T21:21:02.179Z,3.54
2022-10-05T21:23:50.748Z,3.52
2022-10-05T21:26:31.917Z,3.64
2022-10-05T21:29:12.481Z,3.83
2022-10-05T21:37:58.156Z,3.87
2022-10-05T21:41:01.941Z,4.07
2022-10-05T21:43:43.173Z,3.68
2022-10-05T21:46:21.754Z,3.76
2022-10-05T21:49:03.578Z,3.76
2022-10-05T21:51:57.401Z,3.85
2022-10-05T21:54:33.940Z,3.91
2022-10-05T21:57:10.735Z,3.89
2022-10-05T22:00:08.510Z,3.83
2022-10-05T22:03:07.665Z,3.60
2022-10-05T22:05:52.697Z,3.40
2022-10-05T22:08:33.197Z,3.18
2022-10-05T22:14:08.077Z,3.50
2022-10-05T22:16:51.436Z,3.53
2022-10-05T22:28:46.937Z,3.13
2022-10-05T22:31:32.455Z,3.58
2022-10-05T22:34:10.144Z,3.63
2022-10-05T22:36:53.724Z,3.83
2022-10-05T22:39:33.079Z,4.20
2022-10-05T22:42:47.410Z,4.54
2022-10-05T22:45:29.177Z,5.00
2022-10-05T22:48:21.995Z,5.15
2022-10-05T22:51:10.779Z,5.52
2022-10-05T22:54:19.884Z,5.30
2022-10-05T22:57:06.302Z,5.32
2022-10-05T22:59:51.643Z,5.22
2022-10-05T23:02:53.754Z,5.01
2022-10-05T23:05:32.209Z,4.94
2022-10-05T23:11:01.001Z,4.82
2022-10-05T23:13:51.791Z,5.12
2022-10-05T23:16:38.170Z,5.60
2022-10-05T23:19:28.687Z,5.92
2022-10-05T23:25:22.051Z,5.86
2022-10-05T23:28:24.170Z,5.72
2022-10-05T23:31:11.562Z,5.78
2022-10-05T23:33:57.450Z,5.77
2022-10-05T23:36:51.829Z,5.96
2022-10-05T23:39:36.165Z,6.08
2022-10-05T23:42:19.657Z,6.11
2022-10-05T23:45:13.902Z,6.40
2022-10-05T23:47:52.282Z,6.38
2022-10-05T23:53:27.151Z,6.28
